sensor_id;sensor_type;location;lat;lon;timestamp;pressure;altitude;pressure_sealevel;temperature;humidity
20825;BME280;10573;50.936;6.978;2022-07-10T00:01:12;102233.16;;;16.29;55.44
20825;BME280;10573;50.936;6.978;2022-07-10T00:03:37;102232.88;;;16.13;56.03
20825;BME280;10573;50.936;6.978;2022-07-10T00:06:03;102230.13;;;16.13;56.36
20825;BME280;10573;50.936;6.978;2022-07-10T00:08:29;102222.88;;;16.21;56.21
20825;BME280;10573;50.936;6.978;2022-07-10T00:10:54;102221.28;;;16.28;55.76
20825;BME280;10573;50.936;6.978;2022-07-10T00:13:20;102226.06;;;16.36;55.81
20825;BME280;10573;50.936;6.978;2022-07-10T00:15:45;102222.16;;;16.19;56.45
20825;BME280;10573;50.936;6.978;2022-07-10T00:18:11;102224.47;;;16.24;56.10
20825;BME280;10573;50.936;6.978;2022-07-10T00:20:36;102223.03;;;16.30;56.28
20825;BME280;10573;50.936;6.978;2022-07-10T00:23:02;102218.84;;;16.06;56.88
20825;BME280;10573;50.936;6.978;2022-07-10T00:25:28;102217.97;;;16.15;56.65
20825;BME280;10573;50.936;6.978;2022-07-10T00:27:54;102223.31;;;16.17;56.87
20825;BME280;10573;50.936;6.978;2022-07-10T00:30:19;102221.28;;;16.19;56.83
20825;BME280;10573;50.936;6.978;2022-07-10T00:32:45;102223.47;;;16.15;57.10
20825;BME280;10573;50.936;6.978;2022-07-10T00:35:10;102220.16;;;16.12;57.44
20825;BME280;10573;50.936;6.978;2022-07-10T00:37:35;102212.63;;;16.14;57.63
20825;BME280;10573;50.936;6.978;2022-07-10T00:40:02;102215.81;;;16.09;57.79
20825;BME280;10573;50.936;6.978;2022-07-10T00:42:29;102224.78;;;16.01;58.36
20825;BME280;10573;50.936;6.978;2022-07-10T00:44:55;102220.75;;;15.96;58.66
20825;BME280;10573;50.936;6.978;2022-07-10T00:47:20;102216.66;;;15.90;58.73
20825;BME280;10573;50.936;6.978;2022-07-10T00:49:46;102217.53;;;15.90;59.10
20825;BME280;10573;50.936;6.978;2022-07-10T00:52:16;102218.84;;;15.96;58.98
20825;BME280;10573;50.936;6.978;2022-07-10T00:54:43;102223.19;;;15.89;59.46
20825;BME280;10573;50.936;6.978;2022-07-10T00:57:10;102226.22;;;15.86;59.65
20825;BME280;10573;50.936;6.978;2022-07-10T00:59:36;102213.16;;;15.68;60.27
20825;BME280;10573;50.936;6.978;2022-07-10T01:02:03;102219.94;;;15.64;60.46
20825;BME280;10573;50.936;6.978;2022-07-10T01:04:29;102215.03;;;15.68;60.36
20825;BME280;10573;50.936;6.978;2022-07-10T01:06:54;102213.00;;;15.60;60.65
20825;BME280;10573;50.936;6.978;2022-07-10T01:09:20;102218.88;;;15.36;61.65
20825;BME280;10573;50.936;6.978;2022-07-10T01:11:46;102218.16;;;15.34;61.47
20825;BME280;10573;50.936;6.978;2022-07-10T01:14:12;102215.28;;;15.55;61.20
20825;BME280;10573;50.936;6.978;2022-07-10T01:16:37;102208.09;;;15.54;61.33
20825;BME280;10573;50.936;6.978;2022-07-10T01:19:03;102203.31;;;15.56;61.22
20825;BME280;10573;50.936;6.978;2022-07-10T01:21:30;102209.66;;;15.47;61.33
20825;BME280;10573;50.936;6.978;2022-07-10T01:23:57;102204.16;;;15.37;61.73
20825;BME280;10573;50.936;6.978;2022-07-10T01:26:23;102193.16;;;15.37;61.45
20825;BME280;10573;50.936;6.978;2022-07-10T01:28:53;102198.06;;;15.33;61.41
20825;BME280;10573;50.936;6.978;2022-07-10T01:31:19;102185.91;;;15.26;61.72
20825;BME280;10573;50.936;6.978;2022-07-10T01:33:46;102189.66;;;15.25;62.38
20825;BME280;10573;50.936;6.978;2022-07-10T01:36:12;102175.22;;;15.33;61.70
20825;BME280;10573;50.936;6.978;2022-07-10T01:38:39;102175.78;;;15.17;62.54
20825;BME280;10573;50.936;6.978;2022-07-10T01:41:04;102177.97;;;15.23;62.33
20825;BME280;10573;50.936;6.978;2022-07-10T01:43:30;102177.38;;;15.19;62.51
20825;BME280;10573;50.936;6.978;2022-07-10T01:45:55;102181.25;;;15.17;62.13
20825;BME280;10573;50.936;6.978;2022-07-10T01:48:21;102183.03;;;15.27;61.97
20825;BME280;10573;50.936;6.978;2022-07-10T01:50:46;102182.44;;;15.24;62.28
20825;BME280;10573;50.936;6.978;2022-07-10T01:53:12;102182.72;;;15.21;62.17
20825;BME280;10573;50.936;6.978;2022-07-10T01:55:37;102176.50;;;15.19;62.00
20825;BME280;10573;50.936;6.978;2022-07-10T01:58:03;102179.38;;;15.17;62.16
20825;BME280;10573;50.936;6.978;2022-07-10T02:00:28;102182.00;;;15.19;62.07
20825;BME280;10573;50.936;6.978;2022-07-10T02:02:54;102188.81;;;15.24;61.98
20825;BME280;10573;50.936;6.978;2022-07-10T02:05:38;102183.88;;;15.28;62.00
20825;BME280;10573;50.936;6.978;2022-07-10T02:08:03;102179.69;;;15.24;62.08
20825;BME280;10573;50.936;6.978;2022-07-10T02:10:31;102183.16;;;15.26;61.90
20825;BME280;10573;50.936;6.978;2022-07-10T02:12:57;102186.63;;;15.28;61.87
20825;BME280;10573;50.936;6.978;2022-07-10T02:15:22;102179.28;;;15.38;61.57
20825;BME280;10573;50.936;6.978;2022-07-10T02:17:48;102183.94;;;15.48;61.37
20825;BME280;10573;50.936;6.978;2022-07-10T02:20:13;102176.84;;;15.45;61.30
20825;BME280;10573;50.936;6.978;2022-07-10T02:22:39;102174.97;;;15.55;61.20
20825;BME280;10573;50.936;6.978;2022-07-10T02:25:05;102171.34;;;15.55;61.01
20825;BME280;10573;50.936;6.978;2022-07-10T02:27:30;102165.16;;;15.53;60.88
20825;BME280;10573;50.936;6.978;2022-07-10T02:29:56;102165.84;;;15.55;60.95
20825;BME280;10573;50.936;6.978;2022-07-10T02:32:21;102158.06;;;15.60;61.03
20825;BME280;10573;50.936;6.978;2022-07-10T02:34:47;102160.53;;;15.63;60.80
20825;BME280;10573;50.936;6.978;2022-07-10T02:37:12;102156.16;;;15.51;60.98
20825;BME280;10573;50.936;6.978;2022-07-10T02:39:38;102155.56;;;15.37;61.64
20825;BME280;10573;50.936;6.978;2022-07-10T02:42:03;102160.22;;;15.47;61.36
20825;BME280;10573;50.936;6.978;2022-07-10T02:44:29;102158.19;;;15.49;61.19
20825;BME280;10573;50.936;6.978;2022-07-10T02:46:54;102162.09;;;15.56;61.33
20825;BME280;10573;50.936;6.978;2022-07-10T02:49:20;102157.00;;;15.41;61.34
20825;BME280;10573;50.936;6.978;2022-07-10T02:51:45;102155.91;;;15.54;61.17
20825;BME280;10573;50.936;6.978;2022-07-10T02:54:11;102158.47;;;15.46;61.60
20825;BME280;10573;50.936;6.978;2022-07-10T02:56:36;102165.41;;;15.40;61.66
20825;BME280;10573;50.936;6.978;2022-07-10T02:59:02;102163.25;;;15.43;61.67
20825;BME280;10573;50.936;6.978;2022-07-10T03:01:27;102155.31;;;15.40;61.97
20825;BME280;10573;50.936;6.978;2022-07-10T03:03:53;102158.91;;;15.31;62.35
20825;BME280;10573;50.936;6.978;2022-07-10T03:06:18;102154.41;;;15.30;62.43
20825;BME280;10573;50.936;6.978;2022-07-10T03:08:43;102162.22;;;15.25;62.61
20825;BME280;10573;50.936;6.978;2022-07-10T03:11:09;102165.94;;;15.14;62.91
20825;BME280;10573;50.936;6.978;2022-07-10T03:13:35;102170.00;;;15.20;62.73
20825;BME280;10573;50.936;6.978;2022-07-10T03:16:00;102167.09;;;15.21;62.82
20825;BME280;10573;50.936;6.978;2022-07-10T03:18:25;102171.03;;;15.19;62.67
20825;BME280;10573;50.936;6.978;2022-07-10T03:20:51;102174.94;;;15.26;62.81
20825;BME280;10573;50.936;6.978;2022-07-10T03:23:16;102173.78;;;15.19;62.70
20825;BME280;10573;50.936;6.978;2022-07-10T03:25:42;102178.97;;;15.22;62.60
20825;BME280;10573;50.936;6.978;2022-07-10T03:28:07;102174.38;;;15.32;62.34
20825;BME280;10573;50.936;6.978;2022-07-10T03:30:33;102173.38;;;15.43;61.93
20825;BME280;10573;50.936;6.978;2022-07-10T03:32:58;102170.91;;;15.40;61.93
20825;BME280;10573;50.936;6.978;2022-07-10T03:35:24;102173.34;;;15.33;62.05
20825;BME280;10573;50.936;6.978;2022-07-10T03:37:51;102165.69;;;15.27;62.52
20825;BME280;10573;50.936;6.978;2022-07-10T03:40:16;102173.34;;;15.33;62.44
20825;BME280;10573;50.936;6.978;2022-07-10T03:42:42;102176.38;;;15.30;62.29
20825;BME280;10573;50.936;6.978;2022-07-10T03:45:07;102182.31;;;15.35;62.20
20825;BME280;10573;50.936;6.978;2022-07-10T03:47:33;102181.75;;;15.41;62.14
20825;BME280;10573;50.936;6.978;2022-07-10T03:49:58;102174.38;;;15.32;62.46
20825;BME280;10573;50.936;6.978;2022-07-10T03:52:24;102169.44;;;15.46;62.21
20825;BME280;10573;50.936;6.978;2022-07-10T03:54:49;102170.50;;;15.44;62.05
20825;BME280;10573;50.936;6.978;2022-07-10T03:57:15;102173.53;;;15.51;61.91
20825;BME280;10573;50.936;6.978;2022-07-10T03:59:58;102166.84;;;15.44;62.00
20825;BME280;10573;50.936;6.978;2022-07-10T04:02:24;102166.00;;;15.43;61.73
20825;BME280;10573;50.936;6.978;2022-07-10T04:04:49;102174.66;;;15.39;61.98
20825;BME280;10573;50.936;6.978;2022-07-10T04:07:15;102168.69;;;15.24;62.54
20825;BME280;10573;50.936;6.978;2022-07-10T04:09:41;102162.81;;;15.38;62.15
20825;BME280;10573;50.936;6.978;2022-07-10T04:12:07;102164.56;;;15.39;62.04
20825;BME280;10573;50.936;6.978;2022-07-10T04:14:33;102161.81;;;15.39;62.18
20825;BME280;10573;50.936;6.978;2022-07-10T04:16:58;102166.00;;;15.34;62.30
20825;BME280;10573;50.936;6.978;2022-07-10T04:19:23;102171.50;;;15.43;62.02
20825;BME280;10573;50.936;6.978;2022-07-10T04:21:49;102173.22;;;15.44;61.85
20825;BME280;10573;50.936;6.978;2022-07-10T04:24:14;102167.03;;;15.62;61.51
20825;BME280;10573;50.936;6.978;2022-07-10T04:26:40;102174.97;;;15.65;61.75
20825;BME280;10573;50.936;6.978;2022-07-10T04:29:05;102180.47;;;15.65;61.96
20825;BME280;10573;50.936;6.978;2022-07-10T04:31:30;102168.94;;;15.81;60.89
20825;BME280;10573;50.936;6.978;2022-07-10T04:33:56;102175.16;;;15.93;60.63
20825;BME280;10573;50.936;6.978;2022-07-10T04:36:23;102172.97;;;16.06;60.35
20825;BME280;10573;50.936;6.978;2022-07-10T04:38:49;102175.00;;;16.04;60.26
20825;BME280;10573;50.936;6.978;2022-07-10T04:41:14;102179.06;;;15.90;60.27
20825;BME280;10573;50.936;6.978;2022-07-10T04:43:40;102177.94;;;15.83;60.81
20825;BME280;10573;50.936;6.978;2022-07-10T04:46:05;102177.03;;;15.83;60.96
20825;BME280;10573;50.936;6.978;2022-07-10T04:48:32;102171.53;;;15.92;60.74
20825;BME280;10573;50.936;6.978;2022-07-10T04:50:57;102182.41;;;15.94;60.81
20825;BME280;10573;50.936;6.978;2022-07-10T04:53:23;102175.97;;;15.64;61.47
20825;BME280;10573;50.936;6.978;2022-07-10T04:55:48;102185.66;;;15.68;61.47
20825;BME280;10573;50.936;6.978;2022-07-10T04:58:14;102182.66;;;15.71;61.54
20825;BME280;10573;50.936;6.978;2022-07-10T05:00:39;102178.47;;;15.77;61.29
20825;BME280;10573;50.936;6.978;2022-07-10T05:03:05;102177.31;;;15.80;61.53
20825;BME280;10573;50.936;6.978;2022-07-10T05:05:30;102177.94;;;15.83;61.12
20825;BME280;10573;50.936;6.978;2022-07-10T05:07:55;102186.81;;;15.66;61.67
20825;BME280;10573;50.936;6.978;2022-07-10T05:10:21;102189.06;;;15.91;60.86
20825;BME280;10573;50.936;6.978;2022-07-10T05:12:47;102191.22;;;15.88;60.78
20825;BME280;10573;50.936;6.978;2022-07-10T05:15:12;102184.56;;;15.90;60.78
20825;BME280;10573;50.936;6.978;2022-07-10T05:17:38;102181.38;;;15.95;61.14
20825;BME280;10573;50.936;6.978;2022-07-10T05:20:03;102190.91;;;15.91;61.10
20825;BME280;10573;50.936;6.978;2022-07-10T05:22:29;102188.91;;;16.03;60.75
20825;BME280;10573;50.936;6.978;2022-07-10T05:24:56;102186.00;;;16.04;60.82
20825;BME280;10573;50.936;6.978;2022-07-10T05:27:21;102185.44;;;16.01;61.26
20825;BME280;10573;50.936;6.978;2022-07-10T05:29:47;102184.56;;;16.00;60.95
20825;BME280;10573;50.936;6.978;2022-07-10T05:32:13;102195.25;;;16.03;61.02
20825;BME280;10573;50.936;6.978;2022-07-10T05:34:38;102194.69;;;16.09;60.62
20825;BME280;10573;50.936;6.978;2022-07-10T05:37:04;102202.50;;;16.04;61.16
20825;BME280;10573;50.936;6.978;2022-07-10T05:39:30;102200.91;;;16.12;60.71
20825;BME280;10573;50.936;6.978;2022-07-10T05:41:55;102197.41;;;16.09;61.21
20825;BME280;10573;50.936;6.978;2022-07-10T05:44:23;102202.78;;;16.21;60.83
20825;BME280;10573;50.936;6.978;2022-07-10T05:46:48;102195.25;;;16.23;60.59
20825;BME280;10573;50.936;6.978;2022-07-10T05:49:14;102208.41;;;16.29;60.24
20825;BME280;10573;50.936;6.978;2022-07-10T05:51:39;102202.78;;;16.21;60.21
20825;BME280;10573;50.936;6.978;2022-07-10T05:54:05;102205.09;;;16.16;60.50
20825;BME280;10573;50.936;6.978;2022-07-10T05:56:30;102195.25;;;16.13;60.45
20825;BME280;10573;50.936;6.978;2022-07-10T05:58:56;102201.75;;;16.22;60.53
20825;BME280;10573;50.936;6.978;2022-07-10T06:01:23;102205.34;;;16.32;59.83
20825;BME280;10573;50.936;6.978;2022-07-10T06:03:48;102207.13;;;16.14;60.06
20825;BME280;10573;50.936;6.978;2022-07-10T06:06:14;102196.56;;;16.09;60.23
20825;BME280;10573;50.936;6.978;2022-07-10T06:08:43;102194.19;;;16.34;59.37
20825;BME280;10573;50.936;6.978;2022-07-10T06:11:10;102195.78;;;16.36;58.40
20825;BME280;10573;50.936;6.978;2022-07-10T06:13:36;102188.19;;;16.58;58.09
20825;BME280;10573;50.936;6.978;2022-07-10T06:16:02;102187.31;;;16.67;57.33
20825;BME280;10573;50.936;6.978;2022-07-10T06:18:29;102189.47;;;16.73;57.08
20825;BME280;10573;50.936;6.978;2022-07-10T06:20:54;102196.59;;;17.04;56.38
20825;BME280;10573;50.936;6.978;2022-07-10T06:23:20;102195.25;;;17.18;56.02
20825;BME280;10573;50.936;6.978;2022-07-10T06:25:45;102192.81;;;16.67;55.45
20825;BME280;10573;50.936;6.978;2022-07-10T06:28:11;102206.19;;;17.00;55.33
20825;BME280;10573;50.936;6.978;2022-07-10T06:30:36;102202.25;;;17.02;54.00
20825;BME280;10573;50.936;6.978;2022-07-10T06:33:02;102196.31;;;17.07;54.42
20825;BME280;10573;50.936;6.978;2022-07-10T06:35:27;102197.91;;;17.09;54.10
20825;BME280;10573;50.936;6.978;2022-07-10T06:37:52;102201.84;;;16.97;54.69
20825;BME280;10573;50.936;6.978;2022-07-10T06:40:20;102207.19;;;16.99;54.91
20825;BME280;10573;50.936;6.978;2022-07-10T06:42:45;102207.00;;;16.72;55.82
20825;BME280;10573;50.936;6.978;2022-07-10T06:45:11;102205.91;;;16.93;55.58
20825;BME280;10573;50.936;6.978;2022-07-10T06:47:36;102202.19;;;16.74;56.20
20825;BME280;10573;50.936;6.978;2022-07-10T06:50:20;102202.63;;;16.80;56.09
20825;BME280;10573;50.936;6.978;2022-07-10T06:52:47;102202.25;;;17.02;55.13
20825;BME280;10573;50.936;6.978;2022-07-10T06:55:13;102205.22;;;17.19;55.15
20825;BME280;10573;50.936;6.978;2022-07-10T06:57:38;102197.81;;;17.65;53.83
20825;BME280;10573;50.936;6.978;2022-07-10T07:00:05;102181.38;;;17.91;53.09
20825;BME280;10573;50.936;6.978;2022-07-10T07:02:31;102195.28;;;17.90;52.87
20825;BME280;10573;50.936;6.978;2022-07-10T07:04:57;102192.16;;;17.85;52.50
20825;BME280;10573;50.936;6.978;2022-07-10T07:07:22;102197.59;;;17.58;54.17
20825;BME280;10573;50.936;6.978;2022-07-10T07:09:48;102207.91;;;17.74;54.25
20825;BME280;10573;50.936;6.978;2022-07-10T07:12:16;102199.59;;;17.38;55.42
20825;BME280;10573;50.936;6.978;2022-07-10T07:14:42;102205.53;;;17.43;55.82
20825;BME280;10573;50.936;6.978;2022-07-10T07:17:07;102204.44;;;17.54;55.56
20825;BME280;10573;50.936;6.978;2022-07-10T07:19:38;102194.84;;;17.31;56.47
20825;BME280;10573;50.936;6.978;2022-07-10T07:22:23;102201.69;;;17.54;56.02
20825;BME280;10573;50.936;6.978;2022-07-10T07:25:21;102194.69;;;17.78;54.76
20825;BME280;10573;50.936;6.978;2022-07-10T07:27:47;102200.53;;;17.93;53.97
20825;BME280;10573;50.936;6.978;2022-07-10T07:30:14;102197.97;;;18.18;52.96
20825;BME280;10573;50.936;6.978;2022-07-10T07:32:41;102199.16;;;17.79;52.99
20825;BME280;10573;50.936;6.978;2022-07-10T07:35:08;102197.47;;;17.96;52.64
20825;BME280;10573;50.936;6.978;2022-07-10T07:37:38;102206.28;;;18.00;52.45
20825;BME280;10573;50.936;6.978;2022-07-10T07:40:05;102206.25;;;17.82;52.18
20825;BME280;10573;50.936;6.978;2022-07-10T07:42:31;102204.50;;;17.81;52.17
20825;BME280;10573;50.936;6.978;2022-07-10T07:44:56;102208.31;;;17.80;52.24
20825;BME280;10573;50.936;6.978;2022-07-10T07:47:22;102208.06;;;17.91;52.08
20825;BME280;10573;50.936;6.978;2022-07-10T07:49:47;102212.66;;;18.00;51.82
20825;BME280;10573;50.936;6.978;2022-07-10T07:52:13;102207.47;;;17.97;52.06
20825;BME280;10573;50.936;6.978;2022-07-10T07:54:39;102208.78;;;17.57;53.31
20825;BME280;10573;50.936;6.978;2022-07-10T07:57:05;102203.84;;;17.33;54.49
20825;BME280;10573;50.936;6.978;2022-07-10T07:59:31;102210.03;;;17.63;54.60
20825;BME280;10573;50.936;6.978;2022-07-10T08:01:56;102206.06;;;17.93;53.73
20825;BME280;10573;50.936;6.978;2022-07-10T08:04:21;102204.16;;;18.11;53.39
20825;BME280;10573;50.936;6.978;2022-07-10T08:06:47;102209.56;;;18.21;53.42
20825;BME280;10573;50.936;6.978;2022-07-10T08:09:12;102206.88;;;18.30;53.57
20825;BME280;10573;50.936;6.978;2022-07-10T08:11:38;102206.31;;;18.26;53.81
20825;BME280;10573;50.936;6.978;2022-07-10T08:14:03;102206.66;;;18.23;54.07
20825;BME280;10573;50.936;6.978;2022-07-10T08:16:29;102206.66;;;18.23;53.64
20825;BME280;10573;50.936;6.978;2022-07-10T08:18:54;102204.22;;;18.20;54.17
20825;BME280;10573;50.936;6.978;2022-07-10T08:21:19;102193.97;;;18.12;54.60
20825;BME280;10573;50.936;6.978;2022-07-10T08:23:45;102202.47;;;17.83;54.61
20825;BME280;10573;50.936;6.978;2022-07-10T08:26:11;102207.16;;;18.00;54.78
20825;BME280;10573;50.936;6.978;2022-07-10T08:28:36;102204.75;;;17.69;55.47
20825;BME280;10573;50.936;6.978;2022-07-10T08:31:02;102208.84;;;17.65;56.02
20825;BME280;10573;50.936;6.978;2022-07-10T08:33:28;102204.44;;;18.08;54.81
20825;BME280;10573;50.936;6.978;2022-07-10T08:35:53;102210.53;;;18.38;54.56
20825;BME280;10573;50.936;6.978;2022-07-10T08:38:24;102210.53;;;18.38;54.72
20825;BME280;10573;50.936;6.978;2022-07-10T08:40:49;102207.69;;;18.48;54.49
20825;BME280;10573;50.936;6.978;2022-07-10T08:43:16;102211.38;;;18.57;54.10
20825;BME280;10573;50.936;6.978;2022-07-10T08:45:41;102213.81;;;18.60;53.69
20825;BME280;10573;50.936;6.978;2022-07-10T08:48:08;102221.06;;;18.61;53.86
20825;BME280;10573;50.936;6.978;2022-07-10T08:50:38;102212.09;;;18.59;53.62
20825;BME280;10573;50.936;6.978;2022-07-10T08:53:18;102205.47;;;17.89;55.93
20825;BME280;10573;50.936;6.978;2022-07-10T08:55:47;102212.84;;;18.25;54.91
20825;BME280;10573;50.936;6.978;2022-07-10T08:58:13;102206.75;;;18.13;55.65
20825;BME280;10573;50.936;6.978;2022-07-10T09:00:39;102204.28;;;18.28;54.70
20825;BME280;10573;50.936;6.978;2022-07-10T09:03:05;102200.03;;;17.80;55.24
20825;BME280;10573;50.936;6.978;2022-07-10T09:05:32;102208.13;;;18.35;54.99
20825;BME280;10573;50.936;6.978;2022-07-10T09:07:57;102201.72;;;18.61;53.69
20825;BME280;10573;50.936;6.978;2022-07-10T09:10:27;102200.97;;;18.77;53.31
20825;BME280;10573;50.936;6.978;2022-07-10T09:12:55;102199.56;;;18.73;53.10
20825;BME280;10573;50.936;6.978;2022-07-10T09:15:24;102188.41;;;18.30;54.17
20825;BME280;10573;50.936;6.978;2022-07-10T09:17:57;102188.53;;;17.66;55.77
20825;BME280;10573;50.936;6.978;2022-07-10T09:20:35;102188.47;;;18.12;54.63
20825;BME280;10573;50.936;6.978;2022-07-10T09:23:18;102195.19;;;18.62;54.51
20825;BME280;10573;50.936;6.978;2022-07-10T09:25:48;102187.81;;;18.97;52.78
20825;BME280;10573;50.936;6.978;2022-07-10T09:28:17;102186.28;;;18.68;53.29
20825;BME280;10573;50.936;6.978;2022-07-10T09:30:43;102190.09;;;18.75;53.03
20825;BME280;10573;50.936;6.978;2022-07-10T09:33:25;102188.91;;;18.52;53.65
20825;BME280;10573;50.936;6.978;2022-07-10T09:36:10;102183.28;;;18.09;55.28
20825;BME280;10573;50.936;6.978;2022-07-10T09:41:18;102187.22;;;18.06;55.29
20825;BME280;10573;50.936;6.978;2022-07-10T09:46:14;102182.97;;;18.65;54.34
20825;BME280;10573;50.936;6.978;2022-07-10T09:48:40;102186.19;;;18.86;53.78
20825;BME280;10573;50.936;6.978;2022-07-10T09:51:10;102186.06;;;18.96;53.52
20825;BME280;10573;50.936;6.978;2022-07-10T09:53:43;102184.53;;;18.93;54.15
20825;BME280;10573;50.936;6.978;2022-07-10T09:56:10;102188.25;;;18.84;54.22
20825;BME280;10573;50.936;6.978;2022-07-10T09:58:37;102181.13;;;18.73;54.37
20825;BME280;10573;50.936;6.978;2022-07-10T10:01:05;102186.19;;;18.86;53.89
20825;BME280;10573;50.936;6.978;2022-07-10T10:03:34;102183.38;;;19.04;53.94
20825;BME280;10573;50.936;6.978;2022-07-10T10:06:15;102188.78;;;18.88;53.71
20825;BME280;10573;50.936;6.978;2022-07-10T10:08:45;102188.91;;;18.52;55.41
20825;BME280;10573;50.936;6.978;2022-07-10T10:11:14;102183.28;;;18.35;54.97
20825;BME280;10573;50.936;6.978;2022-07-10T10:13:42;102190.38;;;18.64;55.03
20825;BME280;10573;50.936;6.978;2022-07-10T10:16:09;102184.44;;;18.51;55.14
20825;BME280;10573;50.936;6.978;2022-07-10T10:18:36;102182.47;;;18.69;55.82
20825;BME280;10573;50.936;6.978;2022-07-10T10:21:22;102189.63;;;18.54;56.01
20825;BME280;10573;50.936;6.978;2022-07-10T10:23:49;102184.16;;;18.62;55.84
20825;BME280;10573;50.936;6.978;2022-07-10T10:26:16;102182.47;;;18.43;56.69
20825;BME280;10573;50.936;6.978;2022-07-10T10:28:43;102176.03;;;18.08;57.34
20825;BME280;10573;50.936;6.978;2022-07-10T10:31:08;102182.84;;;18.22;57.20
20825;BME280;10573;50.936;6.978;2022-07-10T10:36:04;102179.78;;;17.71;58.21
20825;BME280;10573;50.936;6.978;2022-07-10T10:41:28;102169.31;;;17.92;58.35
20825;BME280;10573;50.936;6.978;2022-07-10T10:49:16;102175.06;;;18.43;57.24
20825;BME280;10573;50.936;6.978;2022-07-10T10:54:24;102166.84;;;18.86;56.85
20825;BME280;10573;50.936;6.978;2022-07-10T10:59:51;102160.28;;;19.14;55.65
20825;BME280;10573;50.936;6.978;2022-07-10T11:04:46;102165.81;;;18.53;57.24
20825;BME280;10573;50.936;6.978;2022-07-10T11:07:11;102154.06;;;19.20;55.21
20825;BME280;10573;50.936;6.978;2022-07-10T11:09:37;102155.78;;;18.52;57.62
20825;BME280;10573;50.936;6.978;2022-07-10T11:12:05;102153.19;;;18.76;56.87
20825;BME280;10573;50.936;6.978;2022-07-10T11:14:36;102153.66;;;19.06;56.48
20825;BME280;10573;50.936;6.978;2022-07-10T11:17:03;102145.84;;;19.44;55.36
20825;BME280;10573;50.936;6.978;2022-07-10T11:19:30;102151.53;;;18.92;55.94
20825;BME280;10573;50.936;6.978;2022-07-10T11:30:12;102151.53;;;18.57;57.42
20825;BME280;10573;50.936;6.978;2022-07-10T11:32:38;102147.25;;;18.63;57.32
20825;BME280;10573;50.936;6.978;2022-07-10T11:35:06;102150.94;;;18.45;58.21
20825;BME280;10573;50.936;6.978;2022-07-10T11:37:33;102153.94;;;18.60;57.65
20825;BME280;10573;50.936;6.978;2022-07-10T11:40:09;102143.22;;;18.49;58.27
20825;BME280;10573;50.936;6.978;2022-07-10T11:42:50;102140.03;;;18.36;58.30
20825;BME280;10573;50.936;6.978;2022-07-10T11:47:48;102147.47;;;18.17;59.50
20825;BME280;10573;50.936;6.978;2022-07-10T11:50:14;102141.69;;;18.28;59.14
20825;BME280;10573;50.936;6.978;2022-07-10T11:52:40;102146.09;;;17.95;60.12
20825;BME280;10573;50.936;6.978;2022-07-10T11:55:20;102141.41;;;18.14;59.98
20825;BME280;10573;50.936;6.978;2022-07-10T11:57:47;102144.00;;;18.41;59.61
20825;BME280;10573;50.936;6.978;2022-07-10T12:00:26;102142.38;;;18.57;59.10
20825;BME280;10573;50.936;6.978;2022-07-10T12:02:53;102139.69;;;18.39;59.77
20825;BME280;10573;50.936;6.978;2022-07-10T12:05:35;102138.25;;;18.61;58.93
20825;BME280;10573;50.936;6.978;2022-07-10T12:08:01;102148.09;;;18.64;59.27
20825;BME280;10573;50.936;6.978;2022-07-10T12:10:31;102143.88;;;18.77;60.02
20825;BME280;10573;50.936;6.978;2022-07-10T12:13:07;102146.47;;;18.79;61.31
20825;BME280;10573;50.936;6.978;2022-07-10T12:15:42;102143.72;;;18.87;60.40
20825;BME280;10573;50.936;6.978;2022-07-10T12:18:14;102146.50;;;18.87;59.71
20825;BME280;10573;50.936;6.978;2022-07-10T12:20:40;102138.34;;;18.77;59.03
20825;BME280;10573;50.936;6.978;2022-07-10T12:23:11;102143.16;;;18.75;59.36
20825;BME280;10573;50.936;6.978;2022-07-10T12:25:38;102144.44;;;18.55;59.75
20825;BME280;10573;50.936;6.978;2022-07-10T12:28:03;102143.19;;;18.84;58.90
20825;BME280;10573;50.936;6.978;2022-07-10T12:30:40;102144.19;;;18.74;59.16
20825;BME280;10573;50.936;6.978;2022-07-10T12:33:09;102145.78;;;18.85;58.68
20825;BME280;10573;50.936;6.978;2022-07-10T12:35:55;102152.88;;;18.88;58.87
20825;BME280;10573;50.936;6.978;2022-07-10T12:38:24;102157.31;;;18.72;59.28
20825;BME280;10573;50.936;6.978;2022-07-10T12:40:52;102155.13;;;18.58;59.71
20825;BME280;10573;50.936;6.978;2022-07-10T12:43:31;102160.25;;;18.00;60.76
20825;BME280;10573;50.936;6.978;2022-07-10T12:46:17;102158.06;;;18.30;60.92
20825;BME280;10573;50.936;6.978;2022-07-10T12:49:07;102158.28;;;18.10;61.06
20825;BME280;10573;50.936;6.978;2022-07-10T12:51:41;102152.47;;;18.40;60.77
20825;BME280;10573;50.936;6.978;2022-07-10T12:54:08;102148.09;;;18.90;59.10
20825;BME280;10573;50.936;6.978;2022-07-10T12:56:34;102141.16;;;19.28;58.37
20825;BME280;10573;50.936;6.978;2022-07-10T12:59:01;102143.00;;;18.85;59.20
20825;BME280;10573;50.936;6.978;2022-07-10T13:01:28;102142.22;;;18.93;58.83
20825;BME280;10573;50.936;6.978;2022-07-10T13:04:01;102136.53;;;18.60;59.88
20825;BME280;10573;50.936;6.978;2022-07-10T13:06:28;102134.38;;;18.45;60.19
20825;BME280;10573;50.936;6.978;2022-07-10T13:08:54;102138.34;;;18.77;59.19
20825;BME280;10573;50.936;6.978;2022-07-10T13:11:19;102128.81;;;19.15;58.93
20825;BME280;10573;50.936;6.978;2022-07-10T13:13:46;102133.16;;;19.17;58.27
20825;BME280;10573;50.936;6.978;2022-07-10T13:16:11;102127.94;;;19.06;58.58
20825;BME280;10573;50.936;6.978;2022-07-10T13:18:37;102131.88;;;18.95;59.19
20825;BME280;10573;50.936;6.978;2022-07-10T13:21:02;102137.03;;;18.90;59.21
20825;BME280;10573;50.936;6.978;2022-07-10T13:23:29;102134.22;;;18.82;59.95
20825;BME280;10573;50.936;6.978;2022-07-10T13:25:55;102126.78;;;18.82;59.78